Time;durP1;ratioP1;P1;durP2;ratioP2;P2;SDS_P1;SDS_P2;PMS_P1;PMS_P2;Temp;Humidity;BMP_temperature;BMP_pressure;BME280_temperature;BME280_humidity;BME280_pressure;Samples;Min_cycle;Max_cycle;Signal;HPM_P1;HPM_P2
2022/04/16 00:01:34;;;;;;;9.70;7.25;;;;;;;11.15;62.64;100001.31;5107871;28;20475;-28
2022/04/16 00:04:00;;;;;;;12.52;7.63;;;;;;;11.00;62.75;100016.91;5108127;28;20020;-30
2022/04/16 00:06:26;;;;;;;14.50;10.00;;;;;;;10.63;63.59;100011.53;5108036;28;20028;-30
2022/04/16 00:08:51;;;;;;;13.13;8.20;;;;;;;10.85;62.28;100014.59;5108082;28;20023;-27
2022/04/16 00:11:17;;;;;;;15.73;8.80;;;;;;;10.98;61.97;100021.63;5107962;28;20039;-29
2022/04/16 00:13:42;;;;;;;14.80;9.10;;;;;;;11.19;61.88;100015.03;5107995;28;20038;-27
2022/04/16 00:16:09;;;;;;;13.82;9.18;;;;;;;11.20;61.56;100012.13;5090009;28;20032;-28
2022/04/16 00:18:35;;;;;;;14.70;7.70;;;;;;;11.22;61.22;100012.72;5106265;28;20468;-29
2022/04/16 00:21:04;;;;;;;16.60;8.90;;;;;;;11.27;60.97;100007.53;5108068;28;20786;-30
2022/04/16 00:23:30;;;;;;;10.25;7.70;;;;;;;11.37;61.18;100011.53;5107981;28;20100;-28
2022/04/16 00:25:56;;;;;;;12.05;7.72;;;;;;;11.08;61.52;100019.25;5107894;28;20020;-29
2022/04/16 00:28:22;;;;;;;11.93;7.93;;;;;;;11.01;62.05;100007.84;5107441;28;20498;-28
2022/04/16 00:30:47;;;;;;;16.60;9.85;;;;;;;10.56;64.68;100032.09;5107689;28;20039;-32
2022/04/16 00:33:13;;;;;;;16.85;8.50;;;;;;;10.57;63.94;100009.75;5107865;28;20598;-29
2022/04/16 00:35:42;;;;;;;18.48;10.07;;;;;;;10.83;62.99;100032.69;5107760;28;20043;-27
2022/04/16 00:38:08;;;;;;;14.30;9.35;;;;;;;10.85;63.08;100039.44;5107912;28;20035;-28
2022/04/16 00:40:34;;;;;;;19.92;11.02;;;;;;;10.68;63.28;100025.03;5110043;28;20031;-29
2022/04/16 00:43:00;;;;;;;12.50;8.15;;;;;;;10.76;63.26;100035.41;5111923;28;20546;-32
2022/04/16 00:45:26;;;;;;;19.45;10.73;;;;;;;10.91;62.88;100040.41;5111724;28;20050;-28
2022/04/16 00:47:53;;;;;;;25.70;18.10;;;;;;;10.88;61.73;100034.69;5112123;28;20411;-28
2022/04/16 00:50:19;;;;;;;28.15;21.48;;;;;;;10.73;61.52;100022.53;5111552;28;20066;-28
2022/04/16 00:52:45;;;;;;;16.08;13.38;;;;;;;10.51;62.39;100046.09;5112209;28;20090;-28
2022/04/16 00:55:11;;;;;;;14.25;9.90;;;;;;;10.45;62.45;100052.31;5111799;28;20032;-28
2022/04/16 00:57:39;;;;;;;12.52;8.30;;;;;;;10.48;62.67;100054.53;5111506;28;20055;-31
2022/04/16 01:00:06;;;;;;;13.90;8.20;;;;;;;10.37;62.26;100032.06;5076373;28;20031;-29
2022/04/16 01:02:35;;;;;;;11.85;8.02;;;;;;;10.36;62.52;100014.47;5111038;28;20269;-29
2022/04/16 01:05:00;;;;;;;13.75;9.15;;;;;;;10.67;62.11;100031.41;5111513;28;20032;-29
2022/04/16 01:07:26;;;;;;;12.40;7.88;;;;;;;10.64;62.17;100021.16;5111356;28;20027;-29
2022/04/16 01:09:52;;;;;;;10.55;7.72;;;;;;;10.55;61.91;100015.31;5111392;28;20032;-28
2022/04/16 01:12:18;;;;;;;12.80;8.65;;;;;;;10.45;62.59;100026.47;5110858;28;20114;-28
2022/04/16 01:14:45;;;;;;;11.15;7.50;;;;;;;10.32;63.20;100025.75;5093222;28;20020;-29
2022/04/16 01:17:12;;;;;;;11.68;7.40;;;;;;;10.33;63.25;100011.41;5111464;28;20031;-29
2022/04/16 01:19:38;;;;;;;12.38;8.30;;;;;;;10.45;62.90;100007.78;5109871;28;20020;-29
2022/04/16 01:22:07;;;;;;;12.85;9.23;;;;;;;10.56;63.45;100008.09;5111070;28;20510;-31
2022/04/16 01:24:34;;;;;;;22.27;8.90;;;;;;;10.21;64.76;100013.94;5110863;28;20782;-28
2022/04/16 01:27:00;;;;;;;10.20;7.97;;;;;;;9.74;66.11;100002.78;5110729;28;20075;-28
2022/04/16 01:29:26;;;;;;;11.68;8.35;;;;;;;10.31;63.69;99997.47;5111612;28;20135;-29
2022/04/16 01:31:53;;;;;;;12.38;8.23;;;;;;;10.32;63.23;100018.59;5110954;28;20555;-31
2022/04/16 01:34:20;;;;;;;12.23;8.55;;;;;;;10.14;63.50;99994.53;5109278;28;20015;-29
2022/04/16 01:36:45;;;;;;;13.35;8.57;;;;;;;10.30;63.67;100004.66;5110980;28;20052;-29
2022/04/16 01:39:11;;;;;;;13.05;8.13;;;;;;;10.13;63.14;100014.19;5110714;28;20027;-30
2022/04/16 01:41:37;;;;;;;14.52;9.48;;;;;;;9.83;63.69;100012.19;5110560;28;20146;-30
2022/04/16 01:44:03;;;;;;;13.70;8.65;;;;;;;9.62;65.00;100006.16;5110818;28;20095;-32
2022/04/16 01:46:29;;;;;;;11.65;8.40;;;;;;;9.41;66.47;100009.94;5110545;28;20031;-28
2022/04/16 01:48:55;;;;;;;12.38;7.72;;;;;;;9.37;66.67;100013.25;5110812;28;20026;-28
2022/04/16 01:51:21;;;;;;;10.63;8.10;;;;;;;9.23;66.14;99992.03;5110217;28;20027;-29
2022/04/16 01:53:48;;;;;;;10.43;6.82;;;;;;;8.70;68.14;99991.38;5110555;28;20036;-28
2022/04/16 01:56:14;;;;;;;10.45;7.40;;;;;;;8.90;67.62;100008.09;5110404;28;20542;-31
2022/04/16 01:58:41;;;;;;;11.85;8.15;;;;;;;8.63;68.16;100002.03;5091771;28;20470;-28
2022/04/16 02:01:07;;;;;;;10.93;7.85;;;;;;;8.51;69.21;100003.69;5091978;28;20023;-30
2022/04/16 02:03:33;;;;;;;15.43;8.57;;;;;;;8.78;68.90;99999.13;5110403;28;20149;-28
2022/04/16 02:05:59;;;;;;;14.18;8.00;;;;;;;8.57;68.96;99992.22;5108783;28;20122;-29
2022/04/16 02:08:24;;;;;;;15.50;8.25;;;;;;;8.51;69.77;100003.69;5110379;28;20490;-35
2022/04/16 02:10:50;;;;;;;12.50;8.20;;;;;;;8.40;69.84;99989.16;5110313;28;20032;-30
2022/04/16 02:13:15;;;;;;;11.98;8.07;;;;;;;8.19;70.71;99984.88;5110258;28;20023;-28
2022/04/16 02:15:41;;;;;;;12.73;8.05;;;;;;;8.05;71.29;99984.88;5110206;28;20031;-28
2022/04/16 02:18:06;;;;;;;12.70;8.57;;;;;;;7.77;73.10;99990.38;5110097;28;20028;-28
2022/04/16 02:20:32;;;;;;;11.68;7.93;;;;;;;8.17;71.22;99992.22;5109829;28;20475;-30
2022/04/16 02:22:57;;;;;;;13.48;9.07;;;;;;;8.35;70.59;99989.75;5110000;28;20063;-29
2022/04/16 02:25:26;;;;;;;11.55;8.18;;;;;;;8.36;70.45;99970.16;5109842;28;20039;-29
2022/04/16 02:27:52;;;;;;;13.40;8.68;;;;;;;8.47;70.62;99986.53;5110127;28;20102;-29
2022/04/16 02:30:19;;;;;;;12.10;8.20;;;;;;;8.41;70.63;99978.34;5109681;28;20577;-30
2022/04/16 02:32:46;;;;;;;14.52;9.00;;;;;;;8.48;70.38;99988.13;5109872;28;20032;-27
2022/04/16 02:35:14;;;;;;;14.35;9.02;;;;;;;8.64;69.61;99987.69;5109498;28;20513;-31
2022/04/16 02:37:40;;;;;;;13.23;8.48;;;;;;;8.60;69.69;99987.31;5108115;28;20055;-27
2022/04/16 02:40:06;;;;;;;12.63;8.68;;;;;;;8.78;70.20;99996.47;5109319;28;20073;-29
2022/04/16 02:42:39;;;;;;;12.05;9.10;;;;;;;8.90;68.81;99996.66;5091285;28;20047;-32
2022/04/16 02:47:52;;;;;;;12.88;8.55;;;;;;;8.57;68.78;99987.72;5109821;28;20085;-28
2022/04/16 02:50:18;;;;;;;14.27;9.13;;;;;;;8.40;68.81;99975.88;5090530;28;20027;-31
2022/04/16 02:52:46;;;;;;;16.75;9.70;;;;;;;8.38;70.03;99977.91;5109575;28;20027;-28
2022/04/16 02:55:15;;;;;;;14.30;9.80;;;;;;;8.36;70.16;99979.97;5109506;28;20051;-28
2022/04/16 02:57:42;;;;;;;13.00;9.52;;;;;;;8.41;71.45;99980.19;5107975;28;20064;-28
2022/04/16 03:00:10;;;;;;;18.35;11.45;;;;;;;8.50;71.47;99972.81;5108984;28;20027;-27
2022/04/16 03:02:36;;;;;;;14.02;9.75;;;;;;;8.59;70.62;99952.97;5108242;28;20058;-27
2022/04/16 03:05:06;;;;;;;14.63;10.20;;;;;;;8.80;69.60;99954.53;5109367;28;20495;-28
2022/04/16 03:07:33;;;;;;;13.88;10.25;;;;;;;9.10;68.94;99978.78;5109201;28;20104;-27
2022/04/16 03:09:58;;;;;;;13.80;9.68;;;;;;;9.21;68.19;99975.47;5090650;28;20135;-29
2022/04/16 03:12:24;;;;;;;16.80;10.18;;;;;;;8.59;69.95;99958.28;5109037;28;20699;-28
2022/04/16 03:17:35;;;;;;;37.85;19.55;;;;;;;9.24;66.77;99977.69;5109206;28;20476;-28
2022/04/16 03:20:07;;;;;;;34.63;18.85;;;;;;;9.15;66.95;99976.28;5109050;28;20034;-31
2022/04/16 03:22:33;;;;;;;33.00;16.55;;;;;;;8.93;67.55;99948.34;5107272;28;20030;-28
2022/04/16 03:25:07;;;;;;;36.38;18.00;;;;;;;9.20;66.52;99965.81;5109106;28;20019;-30
2022/04/16 03:27:33;;;;;;;28.02;15.73;;;;;;;9.11;67.11;99977.72;5108748;28;20035;-28
2022/04/16 03:29:58;;;;;;;25.13;13.52;;;;;;;8.81;67.17;99982.78;5108458;28;20064;-28
2022/04/16 03:32:24;;;;;;;23.65;13.95;;;;;;;9.09;67.30;99995.75;5107064;28;20122;-28
2022/04/16 03:34:49;;;;;;;16.95;11.52;;;;;;;8.96;67.46;99967.34;5108623;28;20036;-28
2022/04/16 03:37:15;;;;;;;17.23;10.65;;;;;;;8.89;67.56;99977.22;5108342;28;20496;-29
2022/04/16 03:39:40;;;;;;;19.23;10.48;;;;;;;8.89;68.39;100000.31;5107166;28;20077;-30
2022/04/16 03:42:06;;;;;;;15.48;9.65;;;;;;;8.85;68.07;99990.13;5106731;28;20027;-31
2022/04/16 03:44:31;;;;;;;18.88;10.93;;;;;;;8.63;68.95;99983.41;5107955;28;20662;-29
2022/04/16 03:46:56;;;;;;;18.20;11.07;;;;;;;8.32;69.66;99968.94;5108401;28;20422;-29
2022/04/16 03:49:22;;;;;;;17.38;11.15;;;;;;;8.81;68.79;99988.91;5108170;28;20475;-28
2022/04/16 03:51:47;;;;;;;13.32;10.05;;;;;;;9.09;67.68;100001.06;5108223;28;20494;-31
2022/04/16 03:59:59;;;;;;;13.88;10.38;;;;;;;8.57;68.73;99978.94;5108160;28;20096;-32
2022/04/16 04:02:24;;;;;;;15.57;9.77;;;;;;;9.10;66.86;99986.75;5107932;28;20030;-28
2022/04/16 04:04:50;;;;;;;15.40;10.05;;;;;;;9.11;67.04;100009.66;5108112;28;20110;-29
2022/04/16 04:07:16;;;;;;;21.15;11.50;;;;;;;8.75;69.63;99991.59;5107798;28;20035;-28
2022/04/16 04:09:43;;;;;;;17.65;11.68;;;;;;;8.32;71.13;99979.56;5108190;28;20031;-28
2022/04/16 04:12:10;;;;;;;14.25;9.77;;;;;;;8.90;68.73;100007.28;5108065;28;20038;-29
2022/04/16 04:14:39;;;;;;;18.08;10.95;;;;;;;8.95;68.89;100004.78;5089448;28;20024;-28
2022/04/16 04:17:07;;;;;;;18.08;8.88;;;;;;;8.39;70.65;99996.28;5108027;28;20093;-28
2022/04/16 04:19:37;;;;;;;14.15;9.55;;;;;;;8.18;71.65;100009.81;5108001;28;20024;-29
2022/04/16 04:22:03;;;;;;;16.35;9.65;;;;;;;8.33;72.13;100004.28;5107745;28;20063;-28
2022/04/16 04:24:29;;;;;;;15.45;10.60;;;;;;;8.25;71.58;100000.81;5107825;28;20175;-28
2022/04/16 04:26:59;;;;;;;15.93;10.52;;;;;;;8.43;71.11;99981.59;5108055;28;20426;-28
2022/04/16 04:29:25;;;;;;;15.63;10.30;;;;;;;8.48;71.28;100012.06;5106439;28;20023;-32
2022/04/16 04:31:51;;;;;;;15.80;10.15;;;;;;;8.43;71.20;99997.53;5107663;28;20089;-28
2022/04/16 04:34:17;;;;;;;15.77;10.40;;;;;;;8.80;70.43;100011.19;5107380;28;20027;-34
2022/04/16 04:36:42;;;;;;;15.38;10.40;;;;;;;9.25;68.59;100019.25;5106153;28;20051;-28
2022/04/16 04:39:08;;;;;;;13.07;10.20;;;;;;;9.22;68.39;100022.31;5107908;28;20015;-30
2022/04/16 04:41:34;;;;;;;13.60;8.70;;;;;;;9.04;68.04;100020.31;5105929;28;20028;-28
2022/04/16 04:43:59;;;;;;;11.90;9.15;;;;;;;9.07;69.12;100036.88;5107827;28;20080;-29
2022/04/16 04:46:25;;;;;;;14.23;9.60;;;;;;;9.22;69.10;100032.94;5105933;28;20028;-29
2022/04/16 04:48:50;;;;;;;27.23;11.60;;;;;;;9.25;69.46;100032.56;5107541;28;20038;-29
2022/04/16 04:51:15;;;;;;;17.23;10.02;;;;;;;9.32;69.96;100015.75;5088984;28;20407;-30
2022/04/16 04:53:41;;;;;;;16.77;9.52;;;;;;;9.61;69.48;100036.47;5107773;28;20451;-30
2022/04/16 04:56:06;;;;;;;13.63;9.48;;;;;;;9.46;70.79;100025.28;5107956;28;20084;-29
2022/04/16 04:58:32;;;;;;;12.88;9.55;;;;;;;9.80;69.18;100015.25;5107811;28;20774;-29
2022/04/16 05:00:57;;;;;;;14.85;10.63;;;;;;;9.91;67.90;100025.22;5107395;28;20046;-31
2022/04/16 05:03:23;;;;;;;15.60;11.38;;;;;;;10.23;67.20;100014.53;5105940;28;20553;-29
2022/04/16 05:05:49;;;;;;;19.10;13.50;;;;;;;10.21;69.62;100016.59;5107224;28;20042;-32
2022/04/16 05:08:15;;;;;;;19.50;13.32;;;;;;;10.57;67.37;100023.91;5107642;28;20052;-28
2022/04/16 05:10:40;;;;;;;17.08;12.13;;;;;;;10.41;65.37;100024.47;5107319;28;20773;-28
2022/04/16 05:13:07;;;;;;;29.05;22.02;;;;;;;10.34;67.02;100029.84;5107671;28;20028;-31
2022/04/16 05:15:32;;;;;;;14.98;11.13;;;;;;;10.28;67.76;100025.38;5107441;28;20038;-28
2022/04/16 05:17:58;;;;;;;16.02;10.07;;;;;;;10.40;67.56;100028.97;5107245;28;20422;-29
2022/04/16 05:20:23;;;;;;;14.68;10.30;;;;;;;10.41;66.42;100022.59;5106762;28;20031;-28
2022/04/16 05:22:49;;;;;;;18.77;11.07;;;;;;;10.37;67.59;100026.75;5107434;28;20028;-30
2022/04/16 05:25:14;;;;;;;13.73;10.30;;;;;;;10.58;65.54;100003.38;5107505;28;20063;-28
2022/04/16 05:27:40;;;;;;;15.85;10.10;;;;;;;10.57;66.74;100017.75;5111012;28;20023;-31
2022/04/16 05:32:36;;;;;;;16.38;10.55;;;;;;;10.99;67.77;100025.94;5110770;28;20112;-28
2022/04/16 05:35:03;;;;;;;14.52;10.07;;;;;;;11.04;66.40;100026.09;5110867;28;20031;-28
2022/04/16 05:37:28;;;;;;;12.77;10.25;;;;;;;11.08;66.76;100013.13;5111131;28;20055;-28
2022/04/16 05:39:54;;;;;;;17.98;10.60;;;;;;;11.20;66.73;100008.66;5110946;28;20026;-30
2022/04/16 05:42:19;;;;;;;14.15;10.43;;;;;;;11.34;65.03;100028.81;5109078;28;20036;-29
2022/04/16 05:44:44;;;;;;;14.27;10.90;;;;;;;11.39;66.44;100031.59;5110755;28;20020;-28
2022/04/16 05:47:10;;;;;;;14.48;10.63;;;;;;;11.31;66.33;100007.09;5108979;28;20031;-29
2022/04/16 05:49:35;;;;;;;22.80;11.95;;;;;;;11.60;66.74;100030.31;5110465;28;20027;-28
2022/04/16 05:52:01;;;;;;;16.00;11.55;;;;;;;11.56;66.74;100013.09;5109097;28;20130;-28
2022/04/16 05:54:27;;;;;;;18.30;12.57;;;;;;;11.88;66.72;100001.38;5110238;28;20550;-28
2022/04/16 05:56:53;;;;;;;13.38;10.80;;;;;;;11.89;64.68;99985.16;5110511;28;20024;-28
2022/04/16 05:59:19;;;;;;;19.38;13.02;;;;;;;12.23;64.75;100020.16;5092105;28;20496;-28
2022/04/16 06:01:45;;;;;;;14.38;11.02;;;;;;;12.66;62.86;100016.34;5110040;28;20030;-31
2022/04/16 06:04:11;;;;;;;15.98;10.38;;;;;;;12.99;61.76;100017.56;5108720;28;20028;-28
2022/04/16 06:06:37;;;;;;;16.85;10.73;;;;;;;12.98;60.88;100011.41;5110103;28;20034;-28
2022/04/16 06:09:03;;;;;;;62.90;52.20;;;;;;;12.94;60.96;100009.44;5110312;28;20028;-30
2022/04/16 06:11:30;;;;;;;20.08;14.13;;;;;;;13.29;60.44;100024.63;5110254;28;20056;-29
2022/04/16 06:13:55;;;;;;;16.85;10.15;;;;;;;13.31;59.11;100027.91;5110212;28;20089;-28
2022/04/16 06:16:21;;;;;;;14.48;10.27;;;;;;;13.30;59.44;100039.66;5110006;28;20035;-32
2022/04/16 06:18:46;;;;;;;15.55;10.02;;;;;;;13.25;59.89;100038.47;5108489;28;20031;-28
2022/04/16 06:21:12;;;;;;;15.27;11.07;;;;;;;13.36;59.45;100044.91;5110062;28;20520;-30
2022/04/16 06:23:37;;;;;;;13.25;9.85;;;;;;;13.43;59.74;100034.03;5109870;28;20024;-28
2022/04/16 06:26:02;;;;;;;15.15;10.60;;;;;;;13.56;58.88;100033.72;5109789;28;20076;-31
2022/04/16 06:28:28;;;;;;;12.93;9.63;;;;;;;13.86;58.28;100021.97;5109646;28;20019;-31
2022/04/16 06:30:53;;;;;;;15.43;10.35;;;;;;;14.10;58.69;100028.00;5109678;28;20028;-29
2022/04/16 06:33:19;;;;;;;12.40;9.75;;;;;;;14.38;56.41;100031.66;5109602;28;20035;-29
2022/04/16 06:35:44;;;;;;;14.68;9.93;;;;;;;14.29;55.32;100006.31;5114903;27;20053;-28
2022/04/16 06:38:10;;;;;;;14.80;10.00;;;;;;;14.45;56.55;100008.97;5110400;27;20027;-28
2022/04/16 06:40:35;;;;;;;14.68;9.60;;;;;;;14.53;54.08;100013.09;5129766;27;20047;-28
2022/04/16 06:43:01;;;;;;;13.40;9.32;;;;;;;14.63;54.59;100015.97;5111662;27;20027;-32
2022/04/16 06:45:26;;;;;;;14.07;9.50;;;;;;;14.63;53.39;100026.69;5129897;27;20096;-35
2022/04/16 06:47:51;;;;;;;13.20;9.15;;;;;;;14.75;54.66;100028.47;5129894;27;20055;-32
2022/04/16 06:50:17;;;;;;;14.50;9.50;;;;;;;15.04;53.90;100021.88;5129967;27;20030;-29
2022/04/16 06:52:42;;;;;;;15.60;9.30;;;;;;;15.17;52.92;100025.25;5129880;27;20019;-29
2022/04/16 06:55:08;;;;;;;14.68;9.85;;;;;;;15.44;55.42;100026.09;5130072;27;20027;-31
2022/04/16 06:57:33;;;;;;;12.00;8.52;;;;;;;15.70;52.62;100020.19;5129607;27;20027;-30
2022/04/16 06:59:59;;;;;;;11.23;8.70;;;;;;;15.74;51.55;100015.97;5129829;27;20027;-29
2022/04/16 07:02:24;;;;;;;14.65;8.85;;;;;;;15.93;50.43;100011.84;5110826;27;20019;-33
2022/04/16 07:04:50;;;;;;;11.43;9.25;;;;;;;16.11;50.41;99999.88;5129835;27;20030;-29
2022/04/16 07:07:16;;;;;;;14.02;9.52;;;;;;;15.87;51.52;100007.47;5129469;27;20084;-29
2022/04/16 07:09:41;;;;;;;14.30;9.32;;;;;;;15.82;51.69;99988.63;5129704;27;20071;-30
2022/04/16 07:12:10;;;;;;;12.73;9.73;;;;;;;16.04;51.32;99991.22;5129509;27;20027;-29
2022/04/16 07:14:40;;;;;;;11.75;9.82;;;;;;;16.19;52.26;99996.72;5128137;27;20058;-29
2022/04/16 07:17:06;;;;;;;13.02;9.40;;;;;;;15.97;51.40;99988.72;5110977;27;20026;-29
2022/04/16 07:19:32;;;;;;;13.30;9.20;;;;;;;15.97;51.92;99985.25;5129368;27;20455;-28
2022/04/16 07:21:58;;;;;;;30.15;13.05;;;;;;;16.04;51.47;99989.34;5110557;27;20149;-31
2022/04/16 07:24:27;;;;;;;17.08;10.63;;;;;;;16.48;50.51;99982.91;5128888;27;20110;-28
2022/04/16 07:26:54;;;;;;;25.40;11.65;;;;;;;16.69;49.14;99981.16;5129190;27;20038;-28
2022/04/16 07:29:24;;;;;;;16.65;10.02;;;;;;;16.40;50.06;99968.06;5110381;27;20027;-29
2022/04/16 07:31:50;;;;;;;13.45;9.30;;;;;;;16.33;50.23;99975.56;5129360;27;20127;-32
2022/04/16 07:34:16;;;;;;;14.80;9.00;;;;;;;16.09;51.36;99967.06;5128880;27;20031;-31
2022/04/16 07:36:42;;;;;;;113.53;27.40;;;;;;;16.64;49.28;99978.44;5106873;28;20069;-28
2022/04/16 07:39:08;;;;;;;203.43;45.35;;;;;;;16.86;49.73;99984.50;5107227;28;20027;-32
2022/04/16 07:41:34;;;;;;;88.97;23.65;;;;;;;16.82;48.83;99979.91;5108561;28;20088;-29
2022/04/16 07:44:03;;;;;;;48.47;15.60;;;;;;;17.06;47.92;99972.19;5108382;28;20027;-29
2022/04/16 07:46:30;;;;;;;29.52;11.32;;;;;;;17.62;47.70;99982.31;5106848;28;20035;-28
2022/04/16 07:48:58;;;;;;;15.50;9.02;;;;;;;17.95;47.70;99975.63;5108250;28;20023;-29
2022/04/16 07:51:25;;;;;;;49.92;16.33;;;;;;;17.91;46.37;99963.75;5106801;28;20043;-31
2022/04/16 07:53:51;;;;;;;43.38;14.23;;;;;;;18.04;46.97;99974.00;5106948;28;20134;-29
2022/04/16 07:56:17;;;;;;;17.52;8.98;;;;;;;18.03;45.46;99966.97;5108051;28;20098;-29
2022/04/16 07:58:42;;;;;;;20.73;10.95;;;;;;;18.16;46.23;99956.72;5107947;28;20455;-29
2022/04/16 08:01:07;;;;;;;13.30;8.07;;;;;;;18.54;45.16;99965.28;5108270;28;20023;-28
2022/04/16 08:03:33;;;;;;;13.82;7.95;;;;;;;18.77;44.12;99971.97;5108152;28;20020;-31
2022/04/16 08:05:58;;;;;;;12.45;7.88;;;;;;;19.00;43.63;99968.69;5108190;28;20039;-30
2022/04/16 08:08:24;;;;;;;37.92;13.80;;;;;;;19.04;43.33;99950.00;5106330;28;20475;-31
2022/04/16 08:10:53;;;;;;;25.17;12.23;;;;;;;19.06;43.72;99961.34;5107898;28;20046;-28
2022/04/16 08:13:19;;;;;;;41.08;14.07;;;;;;;18.79;44.55;99962.53;5107936;28;20023;-29
2022/04/16 08:15:46;;;;;;;39.53;14.50;;;;;;;18.86;43.04;99960.34;5108182;28;20023;-35
2022/04/16 08:18:12;;;;;;;47.30;17.15;;;;;;;19.17;43.07;99960.22;5108266;28;20029;-32
2022/04/16 08:20:38;;;;;;;9.75;6.78;;;;;;;19.33;43.92;99962.81;5107615;28;20080;-29
2022/04/16 08:23:06;;;;;;;14.50;7.40;;;;;;;19.11;43.51;99947.81;5108083;28;20031;-28
2022/04/16 08:27:58;;;;;;;8.90;6.10;;;;;;;19.27;43.58;99962.06;5107781;28;20050;-29
2022/04/16 08:30:24;;;;;;;9.05;6.15;;;;;;;19.46;42.13;99954.88;5106165;28;20024;-28
2022/04/16 08:32:49;;;;;;;15.60;13.10;;;;;;;19.25;41.41;99951.50;5108069;28;20506;-32
2022/04/16 08:35:16;;;;;;;18.58;9.30;;;;;;;19.26;43.94;99950.41;5106228;28;20496;-29
2022/04/16 08:37:42;;;;;;;146.25;34.13;;;;;;;19.61;43.19;99945.84;5124727;28;20083;-29
2022/04/16 08:40:09;;;;;;;10.95;7.28;;;;;;;19.32;44.50;99928.75;5109537;28;20174;-28
2022/04/16 08:42:36;;;;;;;10.13;7.18;;;;;;;19.72;43.41;99940.44;5108865;28;20063;-29
2022/04/16 08:45:07;;;;;;;14.70;10.80;;;;;;;19.24;44.14;99925.56;5109494;28;20418;-33
2022/04/16 08:47:33;;;;;;;13.23;7.38;;;;;;;20.02;42.35;99923.09;5109723;28;20035;-29
2022/04/16 08:50:00;;;;;;;12.07;8.20;;;;;;;19.49;42.33;99921.06;5128516;28;20059;-30
2022/04/16 08:52:31;;;;;;;13.57;9.00;;;;;;;19.99;43.30;99913.66;5128159;28;20518;-28
2022/04/16 08:54:57;;;;;;;12.77;8.57;;;;;;;20.37;41.39;99932.78;5092536;28;20569;-30
2022/04/16 08:57:23;;;;;;;9.85;6.95;;;;;;;20.31;40.66;99920.38;5128282;28;20084;-29
2022/04/16 08:59:53;;;;;;;21.52;7.60;;;;;;;20.55;42.20;99908.72;5128137;27;20031;-32
2022/04/16 09:02:19;;;;;;;9.07;5.70;;;;;;;21.00;40.59;99925.53;5112887;27;20056;-29
2022/04/16 09:04:46;;;;;;;12.13;6.40;;;;;;;20.99;42.45;99918.53;5113611;27;20590;-33
2022/04/16 09:07:12;;;;;;;19.70;6.68;;;;;;;21.30;41.25;99918.09;5113337;27;20047;-34
2022/04/16 09:09:38;;;;;;;11.15;6.32;;;;;;;21.60;40.00;99900.56;5132400;27;20077;-29
2022/04/16 09:12:14;;;;;;;10.30;6.43;;;;;;;21.92;39.54;99885.34;5131788;27;20031;-29
2022/04/16 09:14:44;;;;;;;8.88;6.03;;;;;;;22.51;37.91;99896.50;5097649;27;20497;-29
2022/04/16 09:17:10;;;;;;;9.90;5.93;;;;;;;22.58;36.05;99905.06;5131753;27;20095;-30
2022/04/16 09:19:35;;;;;;;7.65;5.38;;;;;;;22.61;36.95;99899.00;5113255;27;20023;-28
2022/04/16 09:22:01;;;;;;;11.75;5.57;;;;;;;23.04;36.40;99893.22;5131327;27;20041;-34
2022/04/16 09:24:26;;;;;;;8.80;5.38;;;;;;;22.72;36.66;99894.97;5113170;27;20035;-31
2022/04/16 09:26:52;;;;;;;11.00;6.25;;;;;;;22.82;37.98;99885.78;5113248;27;20573;-29
2022/04/16 09:29:18;;;;;;;10.43;5.07;;;;;;;22.77;38.35;99894.06;5113125;27;20027;-32
2022/04/16 09:31:51;;;;;;;8.10;5.22;;;;;;;22.66;38.67;99871.75;5131648;27;20035;-29
2022/04/16 09:34:26;;;;;;;8.55;5.00;;;;;;;22.75;37.56;99888.13;5131437;27;20058;-32
2022/04/16 09:36:54;;;;;;;20.92;13.93;;;;;;;22.81;37.82;99876.84;5131742;27;20067;-29
2022/04/16 09:39:22;;;;;;;7.95;5.03;;;;;;;22.34;36.77;99876.19;5131297;27;20432;-31
2022/04/16 09:41:51;;;;;;;7.93;4.60;;;;;;;22.73;35.61;99883.00;5131297;27;20538;-28
2022/04/16 09:44:28;;;;;;;9.75;4.47;;;;;;;22.66;35.45;99874.47;5112691;27;20114;-36
2022/04/16 09:46:57;;;;;;;9.70;5.05;;;;;;;22.93;36.79;99878.22;5131253;27;20031;-32
2022/04/16 09:49:24;;;;;;;8.48;4.60;;;;;;;23.14;37.28;99879.38;5131190;27;20027;-29
2022/04/16 09:51:51;;;;;;;7.53;4.33;;;;;;;23.03;34.58;99869.88;5112737;27;20490;-29
2022/04/16 09:54:18;;;;;;;8.68;4.43;;;;;;;23.39;36.38;99874.47;5112529;27;20059;-29
2022/04/16 09:56:46;;;;;;;6.97;4.05;;;;;;;23.71;31.59;99875.31;5131150;27;20058;-29
2022/04/16 09:59:13;;;;;;;9.10;3.97;;;;;;;23.36;32.67;99861.50;5112268;27;20035;-31
2022/04/16 10:01:47;;;;;;;7.70;4.30;;;;;;;23.45;32.11;99870.50;5112286;27;20015;-35
2022/04/16 10:04:21;;;;;;;7.82;3.95;;;;;;;23.80;32.64;99859.84;5112490;27;20084;-29
2022/04/16 10:06:49;;;;;;;8.77;4.85;;;;;;;23.80;33.28;99857.97;5112421;27;20042;-31
2022/04/16 10:09:17;;;;;;;7.93;4.30;;;;;;;23.57;34.19;99854.41;5130994;27;20019;-29
2022/04/16 10:14:51;;;;;;;7.40;4.03;;;;;;;24.22;33.18;99871.28;5130781;27;20127;-29
2022/04/16 10:17:25;;;;;;;10.43;4.28;;;;;;;24.24;32.02;99866.31;5112268;27;20027;-32
2022/04/16 10:19:53;;;;;;;9.63;3.65;;;;;;;24.42;32.96;99848.09;5112026;27;20051;-29
2022/04/16 10:22:28;;;;;;;5.78;3.70;;;;;;;24.53;33.08;99854.06;5130084;27;20098;-29
2022/04/16 10:24:57;;;;;;;6.68;3.90;;;;;;;24.45;33.25;99848.25;5130622;27;20685;-29
2022/04/16 10:27:28;;;;;;;7.75;3.85;;;;;;;25.00;31.98;99857.81;5111974;27;20118;-29
2022/04/16 10:30:02;;;;;;;7.13;4.05;;;;;;;24.97;31.51;99860.41;5130292;27;20037;-33
2022/04/16 10:32:38;;;;;;;8.75;4.25;;;;;;;25.44;32.21;99857.84;5130242;27;20074;-28
2022/04/16 10:35:05;;;;;;;10.45;4.72;;;;;;;25.39;31.44;99853.31;5130303;27;20035;-31
2022/04/16 10:37:38;;;;;;;10.80;5.28;;;;;;;25.64;30.74;99854.44;5111381;27;20145;-31
2022/04/16 10:40:23;;;;;;;9.20;4.78;;;;;;;25.69;31.29;99849.91;5111528;27;20031;-31
2022/04/16 10:43:00;;;;;;;12.25;5.82;;;;;;;26.08;29.49;99837.13;5129737;27;20046;-32
2022/04/16 10:45:26;;;;;;;11.43;5.63;;;;;;;25.85;30.80;99843.59;5111272;27;20111;-29
2022/04/16 10:47:54;;;;;;;10.73;4.72;;;;;;;26.09;29.80;99844.97;5129747;27;20110;-30
2022/04/16 10:50:21;;;;;;;8.70;4.38;;;;;;;26.18;30.88;99844.94;5111236;27;20038;-30
2022/04/16 10:53:01;;;;;;;8.55;5.13;;;;;;;26.24;30.36;99832.69;5129828;27;20035;-30
2022/04/16 10:55:31;;;;;;;8.68;4.60;;;;;;;26.24;31.48;99832.69;5130043;27;20027;-33
2022/04/16 10:58:03;;;;;;;8.85;4.78;;;;;;;26.09;31.43;99830.50;5129548;27;20023;-31
2022/04/16 11:00:45;;;;;;;8.27;4.53;;;;;;;26.65;28.97;99836.66;5111178;27;20084;-29
2022/04/16 11:03:31;;;;;;;8.07;4.47;;;;;;;26.93;29.08;99831.47;5129636;27;20031;-29
2022/04/16 11:06:04;;;;;;;6.60;3.90;;;;;;;27.00;28.29;99825.44;5110873;27;20482;-31
2022/04/16 11:08:34;;;;;;;5.55;3.95;;;;;;;27.43;28.18;99825.06;5129421;27;20030;-29
2022/04/16 11:11:01;;;;;;;8.50;4.32;;;;;;;27.56;28.03;99806.69;5111002;27;20407;-32
2022/04/16 11:13:29;;;;;;;9.32;4.10;;;;;;;27.59;27.24;99819.72;5129256;27;20492;-30
2022/04/16 11:15:56;;;;;;;7.53;3.38;;;;;;;27.48;26.26;99806.81;5110727;27;20038;-30
2022/04/16 11:18:21;;;;;;;8.80;3.85;;;;;;;27.81;27.12;99820.47;5128956;27;20106;-29
2022/04/16 11:20:56;;;;;;;7.05;3.60;;;;;;;27.78;26.34;99805.47;5110465;27;20027;-30
2022/04/16 11:23:26;;;;;;;6.78;3.33;;;;;;;27.77;25.76;99811.31;5128537;27;20027;-31
2022/04/16 11:34:17;;;;;;;7.97;3.22;;;;;;;28.05;24.02;99801.31;5128879;27;20046;-29
2022/04/16 11:36:43;;;;;;;8.48;2.88;;;;;;;28.33;25.79;99803.34;5128815;27;20079;-30
2022/04/16 11:39:18;;;;;;;6.63;3.10;;;;;;;28.20;24.36;99769.66;5093461;28;20170;-28
2022/04/16 11:41:49;;;;;;;7.18;2.88;;;;;;;28.12;23.74;99803.47;5128800;27;20114;-31
2022/04/16 11:44:14;;;;;;;5.55;3.15;;;;;;;27.93;24.04;99798.59;5110515;27;20027;-29
2022/04/16 11:46:41;;;;;;;6.18;3.13;;;;;;;27.78;25.34;99769.06;5110235;27;20027;-31
2022/04/16 11:49:07;;;;;;;4.25;2.95;;;;;;;27.51;24.64;99795.19;5128711;27;20019;-29